createdAt,value
2018-06-10T00:01:55.921Z,18.17
2018-06-10T00:04:25.776Z,15.85
2018-06-10T00:06:55.019Z,15.20
2018-06-10T00:09:24.242Z,16.95
2018-06-10T00:11:52.972Z,15.90
2018-06-10T00:14:21.856Z,16.27
2018-06-10T00:16:50.963Z,14.75
2018-06-10T00:19:19.969Z,17.52
2018-06-10T00:21:49.012Z,19.70
2018-06-10T00:24:18.169Z,17.58
2018-06-10T00:26:47.192Z,17.05
2018-06-10T00:29:16.104Z,14.80
2018-06-10T00:31:45.112Z,18.05
2018-06-10T00:34:16.171Z,14.20
2018-06-10T00:36:48.773Z,15.10
2018-06-10T00:39:22.182Z,17.08
2018-06-10T00:41:53.842Z,16.05
2018-06-10T00:44:25.915Z,14.25
2018-06-10T00:46:57.510Z,15.10
2018-06-10T00:49:26.878Z,15.48
2018-06-10T00:51:56.946Z,17.05
2018-06-10T00:54:29.237Z,17.33
2018-06-10T00:57:00.549Z,19.62
2018-06-10T00:59:34.329Z,15.70
2018-06-10T01:02:04.439Z,16.55
2018-06-10T01:04:35.458Z,14.87
2018-06-10T01:07:08.623Z,15.80
2018-06-10T01:09:40.380Z,17.87
2018-06-10T01:12:11.333Z,17.65
2018-06-10T01:14:43.002Z,21.55
2018-06-10T01:17:14.318Z,18.40
2018-06-10T01:19:43.486Z,19.60
2018-06-10T01:22:12.845Z,24.10
2018-06-10T01:24:53.363Z,20.10
2018-06-10T01:27:22.336Z,19.20
2018-06-10T01:29:51.385Z,21.30
2018-06-10T01:32:23.432Z,21.85
2018-06-10T01:34:52.457Z,19.55
2018-06-10T01:37:22.089Z,20.12
2018-06-10T01:39:51.775Z,22.00
2018-06-10T01:42:21.953Z,18.70
2018-06-10T01:44:51.572Z,17.90
2018-06-10T01:47:20.458Z,17.58
2018-06-10T01:49:49.539Z,20.23
2018-06-10T01:52:18.555Z,17.17
2018-06-10T01:54:47.496Z,19.37
2018-06-10T01:57:16.481Z,22.85
2018-06-10T01:59:45.562Z,19.60
2018-06-10T02:02:14.935Z,22.90
2018-06-10T02:04:44.479Z,21.58
2018-06-10T02:07:13.999Z,21.27
2018-06-10T02:09:42.935Z,28.08
2018-06-10T02:12:12.247Z,23.65
2018-06-10T02:14:44.734Z,20.92
2018-06-10T02:17:14.360Z,19.73
2018-06-10T02:19:45.286Z,21.05
2018-06-10T02:22:15.680Z,26.95
2018-06-10T02:24:45.428Z,18.87
2018-06-10T02:27:14.542Z,19.25
2018-06-10T02:29:43.998Z,27.20
2018-06-10T02:32:13.106Z,22.13
2018-06-10T02:34:44.653Z,20.98
2018-06-10T02:37:14.082Z,20.65
2018-06-10T02:39:43.276Z,17.65
2018-06-10T02:42:12.635Z,20.62
2018-06-10T02:44:42.316Z,18.48
2018-06-10T02:47:11.740Z,22.20
2018-06-10T02:49:40.797Z,19.83
2018-06-10T02:52:09.727Z,19.37
2018-06-10T02:54:38.573Z,22.30
2018-06-10T02:57:07.434Z,22.15
2018-06-10T02:59:36.518Z,21.20
2018-06-10T03:02:05.426Z,22.08
2018-06-10T03:04:34.349Z,17.30
2018-06-10T03:07:03.235Z,17.02
2018-06-10T03:09:32.237Z,17.83
2018-06-10T03:12:01.186Z,18.85
2018-06-10T03:14:30.152Z,15.30
2018-06-10T03:16:59.089Z,20.17
2018-06-10T03:19:27.959Z,15.35
2018-06-10T03:21:56.820Z,17.62
2018-06-10T03:24:25.881Z,18.45
2018-06-10T03:26:54.938Z,21.27
2018-06-10T03:29:24.126Z,20.00
2018-06-10T03:31:53.103Z,20.70
2018-06-10T03:34:22.129Z,19.23
2018-06-10T03:36:51.104Z,21.15
2018-06-10T03:39:20.160Z,18.20
2018-06-10T03:41:49.102Z,15.93
2018-06-10T03:44:18.112Z,19.08
2018-06-10T03:46:47.072Z,20.77
2018-06-10T03:49:16.072Z,21.95
2018-06-10T03:51:45.028Z,20.50
2018-06-10T03:54:13.961Z,20.77
2018-06-10T03:56:43.195Z,19.70
2018-06-10T03:59:12.138Z,19.50
2018-06-10T04:01:41.022Z,19.40
2018-06-10T04:04:09.869Z,22.77
2018-06-10T04:06:38.884Z,21.50
2018-06-10T04:09:07.782Z,20.98
2018-06-10T04:11:36.968Z,19.90
2018-06-10T04:14:05.913Z,19.87
2018-06-10T04:16:34.805Z,25.62
2018-06-10T04:19:03.762Z,19.67
2018-06-10T04:21:32.756Z,21.25
2018-06-10T04:24:01.741Z,23.77
2018-06-10T04:26:30.881Z,23.58
2018-06-10T04:28:59.821Z,22.30
2018-06-10T04:31:28.691Z,22.40
2018-06-10T04:33:57.707Z,21.08
2018-06-10T04:36:26.754Z,19.42
2018-06-10T04:38:55.657Z,20.10
2018-06-10T04:41:24.614Z,22.75
2018-06-10T04:43:53.360Z,19.60
2018-06-10T04:46:22.727Z,18.45
2018-06-10T04:48:51.467Z,21.67
2018-06-10T04:51:20.344Z,19.45
2018-06-10T04:53:50.402Z,18.83
2018-06-10T04:56:19.772Z,17.48
2018-06-10T04:58:48.914Z,18.23
2018-06-10T05:01:18.305Z,19.05
2018-06-10T05:03:47.686Z,22.03
2018-06-10T05:06:16.465Z,18.80
2018-06-10T05:08:45.854Z,17.40
2018-06-10T05:11:15.210Z,16.37
2018-06-10T05:13:44.609Z,17.17
2018-06-10T05:16:13.788Z,17.67
2018-06-10T05:18:43.241Z,17.73
2018-06-10T05:21:28.529Z,15.25
2018-06-10T05:24:00.884Z,15.48
2018-06-10T05:26:31.999Z,16.37
2018-06-10T05:29:01.454Z,15.35
2018-06-10T05:31:30.728Z,14.73
2018-06-10T05:34:00.265Z,14.02
2018-06-10T05:36:30.096Z,14.02
2018-06-10T05:38:59.989Z,14.13
2018-06-10T05:41:28.995Z,13.27
2018-06-10T05:43:58.412Z,13.85
2018-06-10T05:46:27.761Z,13.70
2018-06-10T05:48:56.941Z,12.30
2018-06-10T05:51:26.717Z,13.50
2018-06-10T05:53:56.042Z,14.85
2018-06-10T05:56:25.477Z,11.48
2018-06-10T05:58:54.292Z,12.02
2018-06-10T06:01:23.286Z,12.00
2018-06-10T06:03:52.065Z,11.98
2018-06-10T06:06:21.177Z,11.48
2018-06-10T06:08:49.952Z,12.57
2018-06-10T06:11:18.869Z,11.52
2018-06-10T06:13:50.732Z,11.07
2018-06-10T06:16:19.721Z,11.68
2018-06-10T06:18:49.062Z,10.50
2018-06-10T06:21:18.039Z,11.68
2018-06-10T06:23:47.173Z,11.23
2018-06-10T06:26:16.036Z,12.68
2018-06-10T06:28:44.968Z,11.00
2018-06-10T06:31:14.289Z,12.65
2018-06-10T06:33:43.105Z,12.35
2018-06-10T06:36:13.190Z,13.20
2018-06-10T06:38:42.123Z,14.43
2018-06-10T06:41:11.286Z,14.15
2018-06-10T06:43:40.554Z,14.10
2018-06-10T06:46:09.465Z,13.73
2018-06-10T06:48:38.368Z,14.27
2018-06-10T06:51:07.159Z,12.93
2018-06-10T06:53:36.204Z,13.25
2018-06-10T06:56:05.083Z,12.32
2018-06-10T06:58:35.088Z,12.48
2018-06-10T07:01:04.154Z,12.48
2018-06-10T07:03:33.043Z,12.35
2018-06-10T07:06:01.848Z,11.25
2018-06-10T10:00:24.392Z,8.15
2018-06-10T10:02:53.701Z,8.80
2018-06-10T10:05:22.563Z,9.77
2018-06-10T10:07:51.535Z,14.07
2018-06-10T10:10:20.347Z,14.38
2018-06-10T10:12:49.767Z,14.55
2018-06-10T10:15:18.596Z,14.30
2018-06-10T10:17:47.976Z,14.63
2018-06-10T10:20:17.099Z,14.45
2018-06-10T10:22:46.100Z,15.82
2018-06-10T10:25:14.953Z,15.38
2018-06-10T10:27:43.906Z,15.65
2018-06-10T10:30:12.775Z,15.88
2018-06-10T10:32:41.526Z,15.07
2018-06-10T10:35:10.667Z,16.23
2018-06-10T10:37:39.581Z,18.52
2018-06-10T10:40:08.485Z,16.90
2018-06-10T10:42:37.374Z,19.15
2018-06-10T10:45:06.289Z,17.52
2018-06-10T10:47:35.050Z,15.32
2018-06-10T10:50:03.825Z,15.52
2018-06-10T10:52:32.725Z,15.00
2018-06-10T10:55:01.648Z,17.65
2018-06-10T10:57:30.523Z,17.62
2018-06-10T10:59:59.538Z,14.50
2018-06-10T11:02:28.701Z,15.25
2018-06-10T11:04:57.817Z,12.20
2018-06-10T11:07:27.071Z,13.77
2018-06-10T11:09:56.297Z,13.43
2018-06-10T11:12:25.325Z,15.40
2018-06-10T11:14:54.421Z,13.85
2018-06-10T11:25:25.814Z,12.70
2018-06-10T11:27:55.952Z,11.90
2018-06-10T11:30:28.651Z,10.70
2018-06-10T11:33:05.127Z,11.85
2018-06-10T11:35:34.626Z,10.50
2018-06-10T11:38:10.745Z,10.43
2018-06-10T11:40:47.389Z,11.57
2018-06-10T11:43:22.795Z,10.98
2018-06-10T11:45:58.906Z,10.40
2018-06-10T11:48:31.603Z,10.75
2018-06-10T11:51:06.809Z,10.20
2018-06-10T11:53:40.499Z,10.93
2018-06-10T11:56:17.051Z,11.60
2018-06-10T11:58:56.696Z,11.82
2018-06-10T12:01:34.146Z,11.57
2018-06-10T12:04:10.131Z,11.07
2018-06-10T12:06:48.033Z,10.60
2018-06-10T12:09:25.084Z,11.43
2018-06-10T12:12:02.075Z,10.02
2018-06-10T12:37:06.706Z,9.77
2018-06-10T12:39:40.370Z,9.70
2018-06-10T12:42:12.727Z,9.45
2018-06-10T12:44:46.455Z,9.45
2018-06-10T12:47:20.285Z,9.02
2018-06-10T12:49:53.150Z,9.30
2018-06-10T12:52:23.210Z,9.75
2018-06-10T12:57:49.031Z,8.75
2018-06-10T13:00:20.196Z,8.80
2018-06-10T13:02:51.687Z,9.18
2018-06-10T13:05:23.331Z,10.80
2018-06-10T13:07:55.597Z,10.40
2018-06-10T13:10:25.094Z,11.50
2018-06-10T13:12:54.389Z,12.02
2018-06-10T13:15:23.715Z,11.38
2018-06-10T13:20:42.174Z,10.40
2018-06-10T13:23:13.737Z,11.68
2018-06-10T13:25:46.150Z,11.00
2018-06-10T13:28:20.962Z,10.80
2018-06-10T13:30:56.895Z,11.15
2018-06-10T13:33:28.111Z,9.88
2018-06-10T13:35:57.657Z,10.00
2018-06-10T13:38:32.583Z,10.70
2018-06-10T13:41:06.777Z,9.88
2018-06-10T13:43:39.938Z,10.13
2018-06-10T13:46:09.323Z,9.35
2018-06-10T13:48:42.920Z,9.82
2018-06-10T13:51:12.391Z,9.38
2018-06-10T13:53:44.819Z,9.63
2018-06-10T13:56:16.568Z,8.82
2018-06-10T13:58:45.904Z,9.50
2018-06-10T14:01:18.154Z,9.30
2018-06-10T14:03:49.240Z,9.02
2018-06-10T14:06:22.923Z,8.07
2018-06-10T14:09:01.413Z,8.30
2018-06-10T14:11:39.612Z,8.05
2018-06-10T14:14:25.391Z,8.35
2018-06-10T14:16:54.822Z,9.63
2018-06-10T14:19:26.722Z,8.00
2018-06-10T14:21:58.736Z,7.47
2018-06-10T14:24:31.502Z,7.57
2018-06-10T14:27:03.590Z,7.37
2018-06-10T14:29:32.775Z,7.10
2018-06-10T14:32:02.223Z,7.20
2018-06-10T14:34:36.025Z,6.85
2018-06-10T14:37:08.715Z,6.70
2018-06-10T14:39:40.973Z,7.53
2018-06-10T14:50:41.727Z,7.78
2018-06-10T14:53:21.735Z,7.07
2018-06-10T14:55:54.248Z,7.50
2018-06-10T14:58:26.459Z,7.10
2018-06-10T15:00:56.071Z,7.05
2018-06-10T15:03:30.458Z,6.72
2018-06-10T15:05:59.970Z,7.45
2018-06-10T15:08:37.354Z,7.30
2018-06-10T15:11:09.181Z,7.32
2018-06-10T15:13:40.577Z,7.65
2018-06-10T15:16:14.692Z,7.80
2018-06-10T15:19:05.329Z,6.60
2018-06-10T15:21:41.150Z,6.87
2018-06-10T15:27:03.611Z,6.93
2018-06-10T15:29:44.984Z,7.43
2018-06-10T15:32:19.449Z,7.37
2018-06-10T15:34:51.871Z,6.70
2018-06-10T15:37:34.213Z,7.32
2018-06-10T15:40:10.505Z,7.30
2018-06-10T15:51:15.180Z,7.07
2018-06-10T15:56:50.642Z,7.50
2018-06-10T15:59:29.766Z,7.15
2018-06-10T16:01:59.857Z,8.10
2018-06-10T16:04:31.041Z,6.62
2018-06-10T16:10:05.779Z,6.43
2018-06-10T16:12:49.093Z,6.00
2018-06-10T16:18:26.693Z,7.20
2018-06-10T16:21:12.497Z,6.72
2018-06-10T16:23:47.991Z,6.85
2018-06-10T16:26:33.712Z,6.50
2018-06-10T16:32:00.114Z,6.53
2018-06-10T17:02:49.644Z,6.20
2018-06-10T17:05:20.695Z,6.10
2018-06-10T17:08:02.217Z,6.00
2018-06-10T17:10:40.517Z,6.05
2018-06-10T17:16:06.646Z,6.22
2018-06-10T17:18:37.905Z,6.70
2018-06-10T17:24:11.636Z,6.50
2018-06-10T17:29:54.103Z,6.57
2018-06-10T17:32:24.954Z,7.35
2018-06-10T17:35:01.124Z,8.02
2018-06-10T17:37:34.840Z,6.90
2018-06-10T17:40:07.503Z,7.70
2018-06-10T17:42:40.867Z,8.80
2018-06-10T17:45:18.096Z,9.02
2018-06-10T17:47:54.532Z,9.30
2018-06-10T17:50:28.816Z,9.07
2018-06-10T17:53:03.909Z,8.32
2018-06-10T17:55:45.725Z,8.45
2018-06-10T17:58:27.838Z,9.20
2018-06-10T18:01:11.530Z,8.05
2018-06-10T18:12:07.425Z,7.50
2018-06-10T18:17:27.045Z,8.13
2018-06-10T18:20:00.123Z,7.12
2018-06-10T18:22:33.791Z,7.10
2018-06-10T18:25:07.560Z,6.80
2018-06-10T18:27:37.183Z,6.60
2018-06-10T18:30:09.549Z,6.07
2018-06-10T18:35:26.630Z,6.70
2018-06-10T18:38:07.696Z,6.78
2018-06-10T18:40:40.252Z,8.00
2018-06-10T18:46:06.112Z,7.87
2018-06-10T18:48:38.650Z,7.75
2018-06-10T18:51:10.853Z,8.20
2018-06-10T18:53:43.436Z,8.40
2018-06-10T18:56:12.662Z,7.60
2018-06-10T19:01:38.445Z,7.57
2018-06-10T19:04:11.228Z,7.28
2018-06-10T19:06:46.661Z,8.32
2018-06-10T19:09:16.845Z,8.68
2018-06-10T19:11:46.490Z,8.68
2018-06-10T19:14:18.695Z,8.38
2018-06-10T19:16:48.145Z,9.07
2018-06-10T19:19:20.442Z,9.68
2018-06-10T19:21:50.219Z,10.43
2018-06-10T19:24:22.401Z,9.20
2018-06-10T19:26:52.229Z,9.10
2018-06-10T19:29:25.722Z,9.32
2018-06-10T19:31:58.092Z,9.32
2018-06-10T19:34:31.389Z,9.38
2018-06-10T19:37:03.967Z,9.55
2018-06-10T19:39:37.568Z,10.13
2018-06-10T19:42:07.248Z,9.18
2018-06-10T19:44:36.600Z,9.00
2018-06-10T19:47:07.101Z,10.13
2018-06-10T19:49:37.188Z,9.30
2018-06-10T19:52:06.776Z,9.27
2018-06-10T19:54:36.202Z,10.38
2018-06-10T19:57:11.026Z,10.55
2018-06-10T19:59:44.087Z,11.70
2018-06-10T20:02:16.623Z,9.95
2018-06-10T20:04:47.764Z,9.45
2018-06-10T20:07:24.368Z,9.52
2018-06-10T20:10:03.659Z,10.15
2018-06-10T20:12:37.457Z,9.18
2018-06-10T20:15:07.449Z,10.10
2018-06-10T20:17:42.838Z,9.13
2018-06-10T20:20:16.557Z,9.18
2018-06-10T20:22:49.134Z,9.65
2018-06-10T20:25:21.568Z,8.95
2018-06-10T20:28:00.980Z,9.02
2018-06-10T20:33:21.442Z,9.18
2018-06-10T21:03:04.765Z,10.30
2018-06-10T23:11:43.749Z,14.23
2018-06-10T23:17:01.286Z,16.25
2018-06-10T23:57:41.326Z,18.08
